createdAt,value
2022-10-22T00:01:55.439Z,2.30
2022-10-22T00:06:56.893Z,2.45
2022-10-22T00:11:58.433Z,2.70
2022-10-22T00:17:00.967Z,2.75
2022-10-22T00:22:05.571Z,2.70
2022-10-22T00:27:09.279Z,2.90
2022-10-22T00:32:10.983Z,3.40
2022-10-22T00:37:12.553Z,2.55
2022-10-22T00:42:24.600Z,2.55
2022-10-22T00:47:31.044Z,2.80
2022-10-22T00:52:32.668Z,2.15
2022-10-22T00:57:35.367Z,2.78
2022-10-22T01:02:36.823Z,2.15
2022-10-22T01:07:46.608Z,2.30
2022-10-22T01:13:28.151Z,2.67
2022-10-22T01:18:51.670Z,2.50
2022-10-22T01:24:11.920Z,2.78
2022-10-22T01:29:18.661Z,2.17
2022-10-22T01:34:22.063Z,2.58
2022-10-22T01:39:25.585Z,2.80
2022-10-22T01:44:30.256Z,3.00
2022-10-22T01:49:49.047Z,3.40
2022-10-22T01:55:08.347Z,3.33
2022-10-22T02:00:13.166Z,3.08
2022-10-22T02:05:21.163Z,3.15
2022-10-22T02:10:24.713Z,3.08
2022-10-22T02:15:29.777Z,2.97
2022-10-22T02:20:37.173Z,3.13
2022-10-22T02:25:41.984Z,3.28
2022-10-22T02:30:48.812Z,3.83
2022-10-22T02:35:52.114Z,3.40
2022-10-22T02:40:53.747Z,3.40
2022-10-22T02:45:55.695Z,3.22
2022-10-22T02:50:57.118Z,3.13
2022-10-22T02:55:59.420Z,3.42
2022-10-22T03:01:00.976Z,3.70
2022-10-22T03:06:02.556Z,3.42
2022-10-22T03:11:03.999Z,3.58
2022-10-22T03:16:05.920Z,3.42
2022-10-22T03:21:48.948Z,2.72
2022-10-22T03:26:52.063Z,2.80
2022-10-22T03:31:54.380Z,2.40
2022-10-22T03:36:58.586Z,2.80
2022-10-22T03:42:00.810Z,2.88
2022-10-22T03:47:02.862Z,2.80
2022-10-22T03:52:13.659Z,2.80
2022-10-22T03:57:15.109Z,2.85
2022-10-22T04:02:16.734Z,2.80
2022-10-22T04:07:18.308Z,2.30
2022-10-22T04:12:19.708Z,3.35
2022-10-22T04:17:21.154Z,2.95
2022-10-22T04:22:22.643Z,3.30
2022-10-22T04:27:24.133Z,2.97
2022-10-22T04:32:26.855Z,2.55
2022-10-22T04:37:28.411Z,2.97
2022-10-22T04:42:29.899Z,3.05
2022-10-22T04:47:31.326Z,2.83
2022-10-22T04:52:32.842Z,2.90
2022-10-22T04:57:34.434Z,2.83
2022-10-22T05:02:35.907Z,2.58
2022-10-22T05:07:37.467Z,2.85
2022-10-22T05:12:39.281Z,2.28
2022-10-22T05:17:40.971Z,2.63
2022-10-22T05:22:42.550Z,2.65
2022-10-22T05:27:44.156Z,2.78
2022-10-22T05:32:45.632Z,2.88
2022-10-22T05:37:47.077Z,2.35
2022-10-22T05:42:48.535Z,2.90
2022-10-22T05:47:49.945Z,2.58
2022-10-22T05:52:51.376Z,2.63
2022-10-22T05:57:52.868Z,3.08
2022-10-22T06:02:54.290Z,2.83
2022-10-22T06:07:57.391Z,2.38
2022-10-22T06:12:58.884Z,2.38
2022-10-22T06:18:00.660Z,2.10
2022-10-22T06:23:02.059Z,2.70
2022-10-22T06:28:03.629Z,2.45
2022-10-22T06:33:05.049Z,2.47
2022-10-22T06:38:06.472Z,2.13
2022-10-22T06:43:08.060Z,2.30
2022-10-22T06:48:09.543Z,3.13
2022-10-22T06:53:11.066Z,2.97
2022-10-22T06:58:12.512Z,2.65
2022-10-22T07:03:14.717Z,3.10
2022-10-22T07:08:16.197Z,2.75
2022-10-22T07:13:17.643Z,3.22
2022-10-22T07:18:19.225Z,2.63
2022-10-22T07:23:20.652Z,1.75
2022-10-22T07:28:22.108Z,2.33
2022-10-22T07:33:23.527Z,2.10
2022-10-22T07:38:25.372Z,2.38
2022-10-22T07:43:27.135Z,2.15
2022-10-22T07:48:29.164Z,2.08
2022-10-22T07:53:30.576Z,1.70
2022-10-22T07:58:32.096Z,1.70
2022-10-22T08:03:34.429Z,1.80
2022-10-22T08:08:35.914Z,1.58
2022-10-22T08:13:40.487Z,1.45
2022-10-22T08:18:45.784Z,1.92
2022-10-22T08:23:47.276Z,1.50
2022-10-22T08:28:48.761Z,1.67
2022-10-22T08:33:50.327Z,1.73
2022-10-22T08:38:51.796Z,1.50
2022-10-22T08:44:23.576Z,1.42
2022-10-22T08:49:28.894Z,1.42
2022-10-22T08:54:51.807Z,1.30
2022-10-22T09:00:31.049Z,1.45
2022-10-22T09:05:35.296Z,0.90
2022-10-22T09:10:40.715Z,1.35
2022-10-22T09:15:43.807Z,1.00
2022-10-22T09:20:59.443Z,1.45
2022-10-22T09:26:01.256Z,1.30
2022-10-22T09:31:02.740Z,1.50
2022-10-22T09:36:07.567Z,1.33
2022-10-22T09:41:09.191Z,1.33
2022-10-22T09:46:17.415Z,1.17
2022-10-22T09:51:22.660Z,1.45
2022-10-22T09:56:28.578Z,1.10
2022-10-22T10:01:35.298Z,1.05
2022-10-22T10:06:40.964Z,1.25
2022-10-22T10:11:56.988Z,0.88
2022-10-22T10:17:08.240Z,1.00
2022-10-22T10:22:37.176Z,1.00
2022-10-22T10:27:48.795Z,0.95
2022-10-22T10:33:27.570Z,1.40
2022-10-22T10:38:56.476Z,1.00
2022-10-22T10:44:23.026Z,1.23
2022-10-22T10:49:27.311Z,1.23
2022-10-22T10:54:28.826Z,1.40
2022-10-22T10:59:55.322Z,0.80
2022-10-22T11:05:21.419Z,0.98
2022-10-22T11:10:35.867Z,0.90
2022-10-22T11:15:39.943Z,1.27
2022-10-22T11:20:53.575Z,1.38
2022-10-22T11:25:55.076Z,0.90
2022-10-22T11:31:02.964Z,0.77
2022-10-22T11:36:06.245Z,1.00
2022-10-22T11:41:15.692Z,0.90
2022-10-22T11:46:17.124Z,1.35
2022-10-22T11:51:32.364Z,0.93
2022-10-22T11:56:38.892Z,0.88
2022-10-22T12:01:43.087Z,0.80
2022-10-22T12:07:02.297Z,1.15
2022-10-22T12:12:15.556Z,1.45
2022-10-22T12:17:18.775Z,1.95
2022-10-22T12:22:30.563Z,1.60
2022-10-22T12:27:38.354Z,2.15
2022-10-22T12:32:42.733Z,3.15
2022-10-22T12:37:44.639Z,4.10
2022-10-22T12:42:52.379Z,1.48
2022-10-22T12:48:00.288Z,1.77
2022-10-22T12:53:01.807Z,1.10
2022-10-22T12:58:06.434Z,1.85
2022-10-22T13:03:08.205Z,0.93
2022-10-22T13:08:12.783Z,1.10
2022-10-22T13:13:40.595Z,0.95
2022-10-22T13:18:43.702Z,1.02
2022-10-22T13:23:56.150Z,1.13
2022-10-22T13:28:58.701Z,0.98
2022-10-22T13:34:09.731Z,0.90
2022-10-22T13:39:18.713Z,0.90
2022-10-22T13:44:20.203Z,0.80
2022-10-22T13:49:24.612Z,0.60
2022-10-22T13:54:26.067Z,0.98
2022-10-22T13:59:27.493Z,1.30
2022-10-22T14:04:29.044Z,0.90
2022-10-22T14:09:30.428Z,0.90
2022-10-22T14:14:31.834Z,0.80
2022-10-22T14:19:33.319Z,0.82
2022-10-22T14:24:34.708Z,0.60
2022-10-22T14:29:36.084Z,0.82
2022-10-22T14:34:37.593Z,0.93
2022-10-22T14:39:39.556Z,1.08
2022-10-22T14:44:41.037Z,1.70
2022-10-22T14:49:42.556Z,1.40
2022-10-22T14:54:44.090Z,0.88
2022-10-22T14:59:45.606Z,1.00
2022-10-22T15:04:48.616Z,1.20
2022-10-22T15:09:50.841Z,1.27
2022-10-22T15:14:52.344Z,1.15
2022-10-22T15:19:56.137Z,1.10
2022-10-22T15:25:06.079Z,0.95
2022-10-22T15:30:08.372Z,0.95
2022-10-22T15:35:09.800Z,1.00
2022-10-22T15:40:11.610Z,1.00
2022-10-22T15:45:13.079Z,0.98
2022-10-22T15:50:14.765Z,1.20
2022-10-22T15:55:16.298Z,1.30
2022-10-22T16:00:17.926Z,1.23
2022-10-22T16:05:19.916Z,1.10
2022-10-22T16:10:21.438Z,1.42
2022-10-22T16:15:22.927Z,0.90
2022-10-22T16:20:24.386Z,1.17
2022-10-22T16:25:25.767Z,1.23
2022-10-22T16:30:27.181Z,1.60
2022-10-22T16:35:29.490Z,1.48
2022-10-22T16:40:33.024Z,1.10
2022-10-22T16:45:34.444Z,1.08
2022-10-22T16:50:39.209Z,1.75
2022-10-22T16:55:40.911Z,1.90
2022-10-22T17:00:42.512Z,2.40
2022-10-22T17:05:43.940Z,3.17
2022-10-22T17:10:45.398Z,1.65
2022-10-22T17:15:46.986Z,1.52
2022-10-22T17:20:48.408Z,2.15
2022-10-22T17:25:49.872Z,1.60
2022-10-22T17:31:01.036Z,2.80
2022-10-22T17:36:08.856Z,3.33
2022-10-22T17:41:17.642Z,2.83
2022-10-22T17:46:25.305Z,3.00
2022-10-22T17:51:28.003Z,2.78
2022-10-22T17:56:32.649Z,2.97
2022-10-22T18:01:37.540Z,2.47
2022-10-22T18:06:39.162Z,2.35
2022-10-22T18:11:41.290Z,3.80
2022-10-22T18:16:42.896Z,4.13
2022-10-22T18:21:44.399Z,3.42
2022-10-22T18:26:46.010Z,5.90
2022-10-22T18:31:48.612Z,5.07
2022-10-22T18:36:50.159Z,4.43
2022-10-22T18:41:51.656Z,4.07
2022-10-22T18:46:53.103Z,4.15
2022-10-22T18:51:54.523Z,4.30
2022-10-22T18:57:02.507Z,3.75
2022-10-22T19:02:04.463Z,3.80
2022-10-22T19:07:06.186Z,3.90
2022-10-22T19:12:08.943Z,3.92
2022-10-22T19:17:10.433Z,4.18
2022-10-22T19:22:12.038Z,4.13
2022-10-22T19:27:13.516Z,4.22
2022-10-22T19:32:17.562Z,3.33
2022-10-22T19:37:19.028Z,4.47
2022-10-22T19:42:20.803Z,4.88
2022-10-22T19:47:22.454Z,4.28
2022-10-22T19:52:23.943Z,4.95
2022-10-22T19:57:25.473Z,5.45
2022-10-22T20:02:26.894Z,4.15
2022-10-22T20:07:29.102Z,4.80
2022-10-22T20:12:30.574Z,3.97
2022-10-22T20:17:32.223Z,4.25
2022-10-22T20:22:33.665Z,3.97
2022-10-22T20:27:37.345Z,4.50
2022-10-22T20:32:39.874Z,4.28
2022-10-22T20:37:41.499Z,4.00
2022-10-22T20:42:43.525Z,4.75
2022-10-22T20:47:51.776Z,4.70
2022-10-22T20:53:00.112Z,4.47
2022-10-22T20:58:01.558Z,4.38
2022-10-22T21:03:03.039Z,5.03
2022-10-22T21:08:05.143Z,5.43
2022-10-22T21:13:06.681Z,4.47
2022-10-22T21:18:08.803Z,4.07
2022-10-22T21:23:10.265Z,3.63
2022-10-22T21:28:11.672Z,2.88
2022-10-22T21:33:13.141Z,2.90
2022-10-22T21:38:14.574Z,2.60
2022-10-22T21:43:16.423Z,3.20
2022-10-22T21:48:17.837Z,2.92
2022-10-22T21:53:19.238Z,2.50
2022-10-22T21:58:20.729Z,3.70
2022-10-22T22:03:22.636Z,2.55
2022-10-22T22:08:24.326Z,2.42
2022-10-22T22:13:25.733Z,1.98
2022-10-22T22:18:27.372Z,2.83
2022-10-22T22:23:28.863Z,3.00
2022-10-22T22:28:31.241Z,2.10
2022-10-22T22:33:32.662Z,2.45
2022-10-22T22:38:34.203Z,2.25
2022-10-22T22:43:36.134Z,2.55
2022-10-22T22:48:37.659Z,2.97
2022-10-22T22:53:39.232Z,3.03
2022-10-22T22:58:41.405Z,3.38
2022-10-22T23:03:44.810Z,3.22
2022-10-22T23:08:49.262Z,3.13
2022-10-22T23:13:59.556Z,3.35
2022-10-22T23:19:01.094Z,3.70
2022-10-22T23:24:06.012Z,3.42
2022-10-22T23:29:11.228Z,2.83
2022-10-22T23:34:16.153Z,3.03
2022-10-22T23:39:20.054Z,3.47
2022-10-22T23:44:23.078Z,2.95
2022-10-22T23:49:24.556Z,3.65
2022-10-22T23:54:25.983Z,3.03
2022-10-22T23:59:27.473Z,3.65
